Time;durP1;ratioP1;P1;durP2;ratioP2;P2;SDS_P1;SDS_P2;PMS_P1;PMS_P2;Temp;Humidity;BMP_temperature;BMP_pressure;BME280_temperature;BME280_humidity;BME280_pressure;Samples;Min_cycle;Max_cycle;Signal;HPM_P1;HPM_P2
2022/04/09 05:26:52;;;;;;;;;;;;;;;5.33;61.61;96405.81;4259405;27;10227;-62
2022/04/09 05:28:54;;;;;;;;;;;;;;;5.33;62.88;96410.25;4247808;27;5732;-63
2022/04/09 05:30:56;;;;;;;;;;;;;;;5.36;63.56;96423.81;4259256;27;5628;-60
2022/04/09 05:32:58;;;;;;;;;;;;;;;5.14;62.55;96414.88;4231303;28;5734;-62
2022/04/09 05:35:00;;;;;;;;;;;;;;;5.04;63.54;96416.88;4246779;27;5725;-62
2022/04/09 05:37:01;;;;;;;;;;;;;;;5.12;63.39;96424.72;4256402;27;5095;-63
2022/04/09 05:39:03;;;;;;;;;;;;;;;5.02;63.12;96426.69;4249778;27;8370;-62
2022/04/09 05:41:05;;;;;;;;;;;;;;;5.24;63.34;96427.78;4243614;27;6311;-62
2022/04/09 05:43:06;;;;;;;;;;;;;;;5.19;63.28;96441.38;4248279;27;5672;-62
2022/04/09 05:45:09;;;;;;;;;;;;;;;5.36;63.55;96446.59;4246843;27;5728;-61
2022/04/09 05:47:11;;;;;;;;;;;;;;;5.43;62.93;96455.41;4256737;27;5751;-61
2022/04/09 05:49:12;;;;;;;;;;;;;;;5.55;63.45;96461.94;4242693;27;5649;-61
2022/04/09 05:51:14;;;;;;;;;;;;;;;5.48;63.13;96460.97;4247613;27;5652;-62
2022/04/09 05:53:15;;;;;;;;;;;;;;;5.79;62.75;96469.69;4263155;27;5619;-61
2022/04/09 05:55:17;;;;;;;;;;;;;;;5.81;61.60;96467.72;4250536;27;5671;-61
2022/04/09 05:57:19;;;;;;;;;;;;;;;5.91;62.84;96471.97;4249668;27;5746;-62
2022/04/09 05:59:20;;;;;;;;;;;;;;;6.03;62.21;96476.66;4258118;27;5867;-62
2022/04/09 06:01:22;;;;;;;;;;;;;;;5.86;61.89;96475.06;4248784;27;5662;-62
2022/04/09 06:03:24;;;;;;;;;;;;;;;6.02;62.28;96476.84;4241036;27;5775;-62
2022/04/09 06:05:26;;;;;;;;;;;;;;;6.11;61.96;96478.41;4239657;27;5671;-62
2022/04/09 06:07:28;;;;;;;;;;;;;;;6.21;62.21;96483.44;4239486;27;5721;-62
2022/04/09 06:09:30;;;;;;;;;;;;;;;6.23;61.99;96491.94;4244884;27;5740;-62
2022/04/09 06:11:32;;;;;;;;;;;;;;;6.12;62.21;96490.56;4245296;27;5753;-62
2022/04/09 06:13:34;;;;;;;;;;;;;;;6.35;62.51;96490.59;4240240;27;5692;-62
2022/04/09 06:15:35;;;;;;;;;;;;;;;6.41;61.93;96495.13;4259656;27;5573;-63
2022/04/09 06:17:39;;;;;;;;;;;;;;;6.00;59.93;96497.16;4249893;27;5834;-62
2022/04/09 06:19:40;;;;;;;;;;;;;;;6.22;60.17;96503.44;4249523;27;5736;-62
2022/04/09 06:21:42;;;;;;;;;;;;;;;6.22;59.76;96501.63;4245204;27;5715;-62
2022/04/09 06:23:44;;;;;;;;;;;;;;;6.16;59.57;96504.97;4246409;27;5758;-62
2022/04/09 06:25:45;;;;;;;;;;;;;;;6.16;58.73;96512.84;4243236;27;5899;-63
2022/04/09 06:27:47;;;;;;;;;;;;;;;6.00;59.92;96520.78;4237602;27;5649;-62
2022/04/09 06:29:48;;;;;;;;;;;;;;;5.99;59.47;96521.75;4233032;27;6866;-61
2022/04/09 06:31:50;;;;;;;;;;;;;;;5.83;58.58;96523.44;4230446;27;5653;-63
2022/04/09 06:33:53;;;;;;;;;;;;;;;5.61;60.36;96523.38;4235715;28;5685;-64
2022/04/09 06:35:54;;;;;;;;;;;;;;;5.79;60.54;96530.03;4229373;28;5747;-63
2022/04/09 06:37:56;;;;;;;;;;;;;;;5.63;60.67;96535.31;4233857;28;5669;-63
2022/04/09 06:39:59;;;;;;;;;;;;;;;5.53;61.24;96535.50;4234548;27;5819;-63
2022/04/09 06:42:01;;;;;;;;;;;;;;;5.81;61.47;96542.97;4230289;27;5739;-64
2022/04/09 06:44:06;;;;;;;;;;;;;;;5.76;61.15;96547.88;4229783;28;5750;-63
2022/04/09 06:46:08;;;;;;;;;;;;;;;5.78;62.19;96546.75;4227879;27;5664;-63
2022/04/09 06:48:10;;;;;;;;;;;;;;;5.55;61.81;96551.09;4235408;28;5743;-63
2022/04/09 06:50:12;;;;;;;;;;;;;;;5.66;60.96;96550.69;4235379;28;5673;-63
2022/04/09 06:52:14;;;;;;;;;;;;;;;5.33;61.98;96549.97;4235527;28;5668;-64
2022/04/09 06:54:15;;;;;;;;;;;;;;;5.23;61.93;96558.03;4245830;27;5627;-63
2022/04/09 06:56:17;;;;;;;;;;;;;;;5.36;61.13;96551.44;4252841;27;5072;-63
2022/04/09 06:58:18;;;;;;;;;;;;;;;5.32;61.81;96555.38;4237919;27;5665;-63
2022/04/09 07:00:21;;;;;;;;;;;;;;;5.57;61.41;96556.97;4237327;27;5780;-63
2022/04/09 07:02:22;;;;;;;;;;;;;;;5.46;61.41;96555.53;4237498;27;5664;-64
2022/04/09 07:04:24;;;;;;;;;;;;;;;5.42;61.95;96558.63;4235269;28;5739;-64
2022/04/09 07:06:26;;;;;;;;;;;;;;;5.55;61.70;96561.56;4234098;28;5652;-64
2022/04/09 07:08:28;;;;;;;;;;;;;;;5.55;60.27;96564.19;4235172;27;5709;-63
2022/04/09 07:10:29;;;;;;;;;;;;;;;5.42;59.63;96561.25;4235298;28;5804;-63
2022/04/09 07:12:31;;;;;;;;;;;;;;;5.30;61.67;96552.09;4235077;28;5697;-64
2022/04/09 07:14:32;;;;;;;;;;;;;;;5.54;60.86;96557.28;4235608;28;5686;-64
2022/04/09 07:16:34;;;;;;;;;;;;;;;5.67;60.90;96557.63;4234598;28;5096;-63
2022/04/09 07:18:36;;;;;;;;;;;;;;;5.62;60.78;96572.19;4235103;28;5820;-64
2022/04/09 07:20:40;;;;;;;;;;;;;;;5.52;60.25;96567.94;4233875;28;6258;-64
2022/04/09 07:22:41;;;;;;;;;;;;;;;5.59;61.16;96570.75;4234023;28;5636;-64
2022/04/09 07:24:43;;;;;;;;;;;;;;;5.83;60.79;96569.84;4233719;28;5086;-63
2022/04/09 07:26:45;;;;;;;;;;;;;;;5.84;60.61;96574.94;4235915;27;5633;-64
2022/04/09 07:28:46;;;;;;;;;;;;;;;5.38;60.71;96565.19;4252332;27;5644;-64
2022/04/09 07:30:48;;;;;;;;;;;;;;;5.47;60.49;96574.69;4250795;27;5665;-64
2022/04/09 07:32:50;;;;;;;;;;;;;;;5.49;61.21;96578.78;4250310;27;5672;-63
2022/04/09 07:34:52;;;;;;;;;;;;;;;5.72;61.36;96578.06;4252083;27;5047;-64
2022/04/09 07:36:53;;;;;;;;;;;;;;;5.75;60.43;96583.78;4252077;27;5643;-63
2022/04/09 07:38:55;;;;;;;;;;;;;;;5.61;61.73;96586.31;4249598;27;5593;-64
2022/04/09 07:40:57;;;;;;;;;;;;;;;5.69;61.95;96589.72;4252017;27;5640;-63
2022/04/09 07:43:00;;;;;;;;;;;;;;;5.96;61.65;96585.09;4251929;27;5739;-64
2022/04/09 07:45:02;;;;;;;;;;;;;;;5.94;62.12;96587.88;4252028;27;5666;-64
2022/04/09 07:47:03;;;;;;;;;;;;;;;5.97;61.98;96591.97;4245574;27;6343;-64
2022/04/09 07:49:05;;;;;;;;;;;;;;;6.00;62.26;96591.63;4234416;28;5671;-64
2022/04/09 07:51:07;;;;;;;;;;;;;;;6.06;63.21;96601.47;4234503;28;5712;-63
2022/04/09 07:53:09;;;;;;;;;;;;;;;5.68;63.50;96598.59;4217726;28;5801;-63
2022/04/09 07:55:15;;;;;;;;;;;;;;;5.33;65.20;96605.03;4228515;28;5725;-63
2022/04/09 07:57:16;;;;;;;;;;;;;;;5.44;65.57;96602.06;4234346;28;5634;-64
2022/04/09 07:59:18;;;;;;;;;;;;;;;5.16;66.62;96612.06;4234818;27;5675;-64
2022/04/09 08:01:19;;;;;;;;;;;;;;;5.15;66.93;96602.56;4234242;28;5784;-64
2022/04/09 08:03:21;;;;;;;;;;;;;;;5.02;67.34;96602.25;4233287;28;5731;-63
2022/04/09 08:05:23;;;;;;;;;;;;;;;5.09;66.43;96605.81;4234664;28;5661;-64
2022/04/09 08:07:25;;;;;;;;;;;;;;;5.24;65.75;96606.00;4234496;28;5688;-63
2022/04/09 08:09:26;;;;;;;;;;;;;;;5.40;64.95;96605.16;4233998;27;5716;-63
2022/04/09 08:11:28;;;;;;;;;;;;;;;5.57;65.00;96598.94;4234271;28;5642;-64
2022/04/09 08:13:30;;;;;;;;;;;;;;;5.60;64.01;96606.47;4234403;28;5657;-63
2022/04/09 08:15:33;;;;;;;;;;;;;;;5.60;64.04;96613.50;4233931;28;5668;-63
2022/04/09 08:17:41;;;;;;;;;;;;;;;5.43;63.96;96610.06;4234055;28;6416;-63
2022/04/09 08:19:43;;;;;;;;;;;;;;;5.72;64.10;96610.38;4234195;28;5657;-63
2022/04/09 08:21:46;;;;;;;;;;;;;;;5.91;62.66;96618.91;4232826;28;5603;-63
2022/04/09 08:23:47;;;;;;;;;;;;;;;6.08;63.43;96612.59;4231878;28;5762;-63
2022/04/09 08:25:49;;;;;;;;;;;;;;;6.24;61.82;96619.63;4242983;27;5758;-63
2022/04/09 08:27:52;;;;;;;;;;;;;;;6.29;61.68;96614.66;4251062;27;5637;-64
2022/04/09 08:29:54;;;;;;;;;;;;;;;6.20;60.44;96621.75;4249603;27;5624;-64
2022/04/09 08:31:55;;;;;;;;;;;;;;;6.22;61.26;96621.56;4250745;27;5619;-64
2022/04/09 08:33:58;;;;;;;;;;;;;;;6.32;61.65;96622.19;4226341;27;5604;-63
2022/04/09 08:36:02;;;;;;;;;;;;;;;6.41;61.27;96616.72;4248270;27;5707;-64
2022/04/09 08:38:04;;;;;;;;;;;;;;;6.40;61.61;96609.03;4251042;27;6305;-63
2022/04/09 08:40:06;;;;;;;;;;;;;;;6.57;61.30;96615.00;4249142;27;5648;-64
2022/04/09 08:42:08;;;;;;;;;;;;;;;6.68;61.33;96612.84;4245968;27;5649;-64
2022/04/09 08:44:10;;;;;;;;;;;;;;;6.82;61.19;96613.91;4234209;28;5748;-64
2022/04/09 08:46:11;;;;;;;;;;;;;;;6.85;60.53;96613.53;4232191;28;5600;-63
2022/04/09 08:48:14;;;;;;;;;;;;;;;7.02;60.37;96614.22;4232207;28;5621;-64
2022/04/09 08:50:17;;;;;;;;;;;;;;;7.09;59.80;96609.09;4233021;28;5653;-64
2022/04/09 08:52:19;;;;;;;;;;;;;;;7.06;60.12;96615.53;4231136;28;5799;-63
2022/04/09 08:54:21;;;;;;;;;;;;;;;7.04;60.36;96621.97;4233758;28;5641;-63
2022/04/09 08:56:23;;;;;;;;;;;;;;;7.11;60.33;96622.88;4232435;28;5620;-63
2022/04/09 08:58:24;;;;;;;;;;;;;;;7.05;59.67;96621.78;4227110;28;6085;-64
2022/04/09 09:00:27;;;;;;;;;;;;;;;7.00;59.29;96621.47;4217083;28;5670;-63
2022/04/09 09:02:31;;;;;;;;;;;;;;;6.80;58.91;96628.22;4228883;27;5684;-63
2022/04/09 09:04:33;;;;;;;;;;;;;;;6.47;60.16;96619.69;4249206;27;5647;-63
2022/04/09 09:06:40;;;;;;;;;;;;;;;6.47;60.90;96628.38;4232721;27;6562;-63
2022/04/09 09:08:41;;;;;;;;;;;;;;;6.66;60.84;96619.22;4241584;27;7206;-64
2022/04/09 09:10:43;;;;;;;;;;;;;;;6.89;60.03;96630.59;4237860;27;5670;-66
2022/04/09 09:12:57;;;;;;;;;;;;;;;6.81;59.76;96633.28;4249538;27;5656;-65
2022/04/09 09:15:04;;;;;;;;;;;;;;;6.93;60.51;96625.81;4219823;28;5749;-64
2022/04/09 09:17:06;;;;;;;;;;;;;;;7.01;60.67;96631.81;4228898;28;5657;-64
2022/04/09 09:19:09;;;;;;;;;;;;;;;7.10;60.85;96642.28;4233827;28;5649;-64
2022/04/09 09:21:15;;;;;;;;;;;;;;;7.24;60.56;96636.25;4245350;27;5632;-63
2022/04/09 09:23:27;;;;;;;;;;;;;;;7.37;60.98;96635.69;4249658;27;5701;-63
2022/04/09 09:25:29;;;;;;;;;;;;;;;7.40;59.76;96630.88;4249543;27;5782;-63
2022/04/09 09:27:31;;;;;;;;;;;;;;;7.34;59.98;96644.72;4244919;27;5577;-63
2022/04/09 09:29:35;;;;;;;;;;;;;;;6.98;61.33;96649.75;4238658;27;5660;-63
2022/04/09 09:31:46;;;;;;;;;;;;;;;6.96;61.94;96651.75;4246107;27;5653;-62
2022/04/09 09:33:49;;;;;;;;;;;;;;;6.88;62.54;96649.97;4232403;28;5704;-63
2022/04/09 09:36:07;;;;;;;;;;;;;;;6.65;64.04;96654.38;4233397;28;5637;-63
2022/04/09 09:38:29;;;;;;;;;;;;;;;6.68;63.68;96657.50;4233347;28;5735;-63
2022/04/09 09:40:32;;;;;;;;;;;;;;;6.85;63.75;96654.75;4218717;27;5681;-63
2022/04/09 09:42:35;;;;;;;;;;;;;;;6.81;64.83;96664.81;4246389;27;5621;-63
2022/04/09 09:44:42;;;;;;;;;;;;;;;6.82;63.16;96661.19;4233150;28;5656;-64
2022/04/09 09:46:49;;;;;;;;;;;;;;;6.87;63.44;96663.28;4233316;28;5641;-64
2022/04/09 09:48:51;;;;;;;;;;;;;;;6.95;63.32;96663.25;4241903;27;5616;-65
2022/04/09 09:50:54;;;;;;;;;;;;;;;6.76;64.13;96672.38;4250404;27;5615;-65
2022/04/09 09:53:04;;;;;;;;;;;;;;;6.39;66.65;96676.47;4250458;27;5627;-64
2022/04/09 09:55:14;;;;;;;;;;;;;;;6.52;66.17;96669.88;4250671;27;5757;-63
2022/04/09 09:57:20;;;;;;;;;;;;;;;6.57;66.08;96675.41;4246543;27;5701;-64
2022/04/09 09:59:23;;;;;;;;;;;;;;;6.81;65.45;96662.19;4247598;27;5663;-68
2022/04/09 10:01:26;;;;;;;;;;;;;;;6.92;65.27;96676.75;4250137;27;5105;-67
2022/04/09 10:03:28;;;;;;;;;;;;;;;6.96;64.79;96673.59;4251185;27;7675;-68
2022/04/09 10:05:30;;;;;;;;;;;;;;;7.04;64.50;96666.66;4253788;27;5844;-68
2022/04/09 10:07:33;;;;;;;;;;;;;;;7.08;65.18;96665.31;4253382;27;5631;-67
2022/04/09 10:09:35;;;;;;;;;;;;;;;7.14;65.34;96669.88;4234123;28;5596;-67
2022/04/09 10:11:49;;;;;;;;;;;;;;;7.09;64.38;96672.19;4242473;27;5632;-63
2022/04/09 10:13:54;;;;;;;;;;;;;;;7.09;64.75;96666.94;4247189;27;7061;-62
2022/04/09 10:15:57;;;;;;;;;;;;;;;6.78;65.78;96662.50;4245705;27;5631;-63
2022/04/09 10:18:00;;;;;;;;;;;;;;;6.77;66.53;96663.50;4251902;27;5714;-63
2022/04/09 10:20:04;;;;;;;;;;;;;;;7.00;65.30;96663.53;4240195;27;5613;-63
2022/04/09 10:22:06;;;;;;;;;;;;;;;6.87;64.31;96658.03;4252077;27;5662;-63
2022/04/09 10:24:20;;;;;;;;;;;;;;;6.71;63.34;96661.56;4251979;27;5652;-63
2022/04/09 10:26:22;;;;;;;;;;;;;;;6.80;64.25;96662.38;4218744;28;5682;-63
2022/04/09 10:28:36;;;;;;;;;;;;;;;7.06;63.57;96656.78;4249238;27;5612;-63
2022/04/09 10:30:40;;;;;;;;;;;;;;;7.13;64.04;96655.06;4239356;27;5649;-63
2022/04/09 10:32:43;;;;;;;;;;;;;;;7.10;63.62;96666.75;4246333;27;5652;-63
2022/04/09 10:34:51;;;;;;;;;;;;;;;7.24;64.15;96657.28;4249664;27;5779;-64
2022/04/09 10:36:56;;;;;;;;;;;;;;;7.27;63.60;96663.03;4250833;27;5095;-64
2022/04/09 10:39:18;;;;;;;;;;;;;;;6.70;65.38;96671.28;4251523;27;5819;-64
2022/04/09 10:41:24;;;;;;;;;;;;;;;7.06;66.51;96665.47;4238093;27;5885;-63
2022/04/09 10:43:26;;;;;;;;;;;;;;;6.98;60.02;96666.34;4252911;27;5632;-63
2022/04/09 10:45:28;;;;;;;;;;;;;;;6.83;64.34;96665.44;4252782;27;5703;-63
2022/04/09 10:48:14;;;;;;;;;;;;;;;7.11;63.11;96660.50;4249119;27;5723;-63
2022/04/09 10:50:15;;;;;;;;;;;;;;;7.27;60.25;96659.59;4234041;27;5637;-64
2022/04/09 10:52:19;;;;;;;;;;;;;;;7.21;58.82;96662.91;4238339;27;5650;-63
2022/04/09 10:54:21;;;;;;;;;;;;;;;7.21;58.82;96655.03;4232903;28;5663;-64
2022/04/09 10:56:31;;;;;;;;;;;;;;;7.36;58.65;96652.44;4238765;27;5912;-63
2022/04/09 10:59:05;;;;;;;;;;;;;;;7.33;60.99;96658.06;4236379;27;6533;-63
2022/04/09 11:01:46;;;;;;;;;;;;;;;7.40;61.33;96654.56;4235516;27;5909;-63
2022/04/09 11:03:48;;;;;;;;;;;;;;;7.48;62.03;96651.88;4228686;27;5781;-63
2022/04/09 11:05:49;;;;;;;;;;;;;;;7.56;61.69;96649.16;4231002;28;6202;-64
2022/04/09 11:08:05;;;;;;;;;;;;;;;7.39;60.43;96652.09;4228764;27;5832;-64
2022/04/09 11:10:07;;;;;;;;;;;;;;;7.01;60.78;96652.84;4229336;28;5882;-64
2022/04/09 11:12:09;;;;;;;;;;;;;;;6.91;61.33;96649.66;4231414;28;5760;-64
2022/04/09 11:14:10;;;;;;;;;;;;;;;7.17;62.25;96649.31;4234931;27;5763;-64
2022/04/09 11:16:12;;;;;;;;;;;;;;;7.51;61.03;96648.06;4228307;27;5753;-62
2022/04/09 11:18:14;;;;;;;;;;;;;;;7.72;61.09;96650.84;4230154;27;5767;-64
2022/04/09 11:20:16;;;;;;;;;;;;;;;7.63;61.19;96661.59;4237556;27;5864;-64
2022/04/09 11:22:18;;;;;;;;;;;;;;;7.27;61.34;96656.97;4247022;27;5851;-64
2022/04/09 11:24:20;;;;;;;;;;;;;;;7.34;61.88;96657.88;4231707;28;5757;-64
2022/04/09 11:26:26;;;;;;;;;;;;;;;7.52;62.57;96662.84;4230041;28;5863;-64
2022/04/09 11:28:37;;;;;;;;;;;;;;;7.70;61.86;96649.34;4237585;27;5731;-64
2022/04/09 11:31:04;;;;;;;;;;;;;;;7.62;60.96;96658.16;4230167;27;5747;-65
2022/04/09 11:33:06;;;;;;;;;;;;;;;7.61;61.66;96661.78;4227420;28;5707;-64
2022/04/09 11:35:11;;;;;;;;;;;;;;;7.50;61.27;96665.66;4236685;27;5134;-64
2022/04/09 11:37:13;;;;;;;;;;;;;;;7.35;61.14;96672.66;4243793;27;5748;-64
2022/04/09 11:39:14;;;;;;;;;;;;;;;7.29;61.48;96681.25;4231019;27;5734;-64
2022/04/09 11:41:20;;;;;;;;;;;;;;;7.25;61.25;96687.88;4242377;27;5785;-64
2022/04/09 11:43:23;;;;;;;;;;;;;;;6.97;63.63;96684.91;4233026;27;5747;-63
2022/04/09 11:45:28;;;;;;;;;;;;;;;7.03;64.33;96691.31;4249013;27;5863;-64
2022/04/09 11:47:30;;;;;;;;;;;;;;;7.17;64.48;96686.13;4230632;27;6222;-63
2022/04/09 11:49:32;;;;;;;;;;;;;;;7.19;64.23;96684.13;4231827;27;5756;-63
2022/04/09 11:51:35;;;;;;;;;;;;;;;7.08;64.13;96683.72;4238288;27;5848;-63
2022/04/09 11:53:37;;;;;;;;;;;;;;;7.11;63.78;96684.16;4231046;27;5769;-63
2022/04/09 11:55:40;;;;;;;;;;;;;;;7.30;64.29;96688.97;4232837;27;5917;-63
2022/04/09 11:57:54;;;;;;;;;;;;;;;7.44;64.54;96686.56;4233876;27;6571;-62
2022/04/09 11:59:57;;;;;;;;;;;;;;;7.46;63.74;96685.41;4229298;27;5619;-63
2022/04/09 12:02:03;;;;;;;;;;;;;;;7.64;63.10;96682.47;4225790;28;5803;-64
2022/04/09 12:04:05;;;;;;;;;;;;;;;7.78;62.37;96680.88;4221569;27;5714;-63
2022/04/09 12:06:07;;;;;;;;;;;;;;;7.91;62.79;96675.00;4222557;27;5757;-64
2022/04/09 12:08:12;;;;;;;;;;;;;;;7.86;62.10;96675.53;4217754;28;5853;-63
2022/04/09 12:10:24;;;;;;;;;;;;;;;7.93;63.81;96673.84;4229875;27;6447;-63
2022/04/09 12:12:25;;;;;;;;;;;;;;;8.03;64.61;96686.72;4227731;27;5779;-62
2022/04/09 12:14:27;;;;;;;;;;;;;;;7.97;63.09;96688.28;4220952;27;5780;-61
2022/04/09 12:16:37;;;;;;;;;;;;;;;7.80;63.08;96681.50;4230468;27;6276;-63
2022/04/09 12:18:39;;;;;;;;;;;;;;;7.55;62.70;96680.91;4227230;27;5789;-64
2022/04/09 12:20:43;;;;;;;;;;;;;;;7.26;62.56;96694.78;4223334;27;5834;-63
2022/04/09 12:22:54;;;;;;;;;;;;;;;7.28;63.07;96693.59;4231218;28;5756;-63
2022/04/09 12:24:58;;;;;;;;;;;;;;;7.50;62.74;96693.78;4217546;28;5738;-64
2022/04/09 12:27:00;;;;;;;;;;;;;;;7.74;61.57;96695.38;4232168;27;5759;-63
2022/04/09 12:29:08;;;;;;;;;;;;;;;7.78;60.68;96688.75;4248361;27;6395;-64
2022/04/09 12:31:23;;;;;;;;;;;;;;;7.63;60.22;96698.44;4238629;27;5912;-64
2022/04/09 12:33:26;;;;;;;;;;;;;;;7.64;60.85;96694.81;4229745;28;5703;-64
2022/04/09 12:35:30;;;;;;;;;;;;;;;7.65;61.90;96710.41;4228393;28;6461;-65
2022/04/09 12:37:46;;;;;;;;;;;;;;;7.31;61.47;96700.31;4216362;28;5808;-64
2022/04/09 12:39:47;;;;;;;;;;;;;;;7.42;62.16;96699.91;4230779;28;5759;-64
2022/04/09 12:41:49;;;;;;;;;;;;;;;7.70;62.17;96697.56;4233388;27;5708;-64
2022/04/09 12:43:52;;;;;;;;;;;;;;;7.83;59.82;96702.22;4242372;27;5704;-64
2022/04/09 12:46:09;;;;;;;;;;;;;;;7.69;59.66;96695.91;4244845;27;5727;-64
2022/04/09 12:48:13;;;;;;;;;;;;;;;7.49;60.58;96703.47;4231383;27;6011;-64
2022/04/09 12:50:47;;;;;;;;;;;;;;;7.51;60.40;96698.84;4231851;27;6905;-65
2022/04/09 12:52:49;;;;;;;;;;;;;;;7.81;60.79;96707.66;4239427;27;5768;-64
2022/04/09 12:54:53;;;;;;;;;;;;;;;7.95;61.34;96705.25;4237680;27;5102;-64
2022/04/09 12:56:55;;;;;;;;;;;;;;;8.08;60.35;96705.44;4239873;27;7728;-64
2022/04/09 12:58:57;;;;;;;;;;;;;;;8.06;59.96;96702.19;4242634;27;5730;-64
2022/04/09 13:00:59;;;;;;;;;;;;;;;7.69;59.96;96713.50;4240731;27;5763;-64
2022/04/09 13:03:03;;;;;;;;;;;;;;;7.93;59.32;96713.31;4229985;27;5894;-64
2022/04/09 13:05:05;;;;;;;;;;;;;;;8.01;59.45;96720.31;4229919;28;5826;-64
2022/04/09 13:07:07;;;;;;;;;;;;;;;7.72;59.71;96721.88;4229933;28;5911;-64
2022/04/09 13:09:09;;;;;;;;;;;;;;;7.52;58.51;96723.34;4228881;28;5748;-64
2022/04/09 13:11:14;;;;;;;;;;;;;;;7.71;59.18;96717.63;4234274;27;5763;-64
2022/04/09 13:13:17;;;;;;;;;;;;;;;7.53;60.62;96719.72;4230834;27;5884;-65
2022/04/09 13:15:19;;;;;;;;;;;;;;;7.81;60.61;96719.97;4229666;27;5854;-64
2022/04/09 13:17:21;;;;;;;;;;;;;;;7.90;58.77;96718.91;4244362;27;5775;-65
2022/04/09 13:19:22;;;;;;;;;;;;;;;7.93;58.88;96715.09;4226619;27;5759;-64
2022/04/09 13:21:25;;;;;;;;;;;;;;;7.88;58.89;96705.13;4227932;27;5755;-64
2022/04/09 13:23:26;;;;;;;;;;;;;;;7.61;60.37;96700.44;4232832;27;5740;-64
2022/04/09 13:25:28;;;;;;;;;;;;;;;7.56;59.46;96700.94;4236210;27;5780;-64
2022/04/09 13:27:30;;;;;;;;;;;;;;;7.96;60.21;96691.91;4238874;27;5732;-64
2022/04/09 13:29:31;;;;;;;;;;;;;;;8.24;59.26;96697.38;4235506;27;5788;-64
2022/04/09 13:31:33;;;;;;;;;;;;;;;8.50;58.72;96689.06;4234132;27;5752;-63
2022/04/09 13:33:35;;;;;;;;;;;;;;;8.73;57.97;96688.97;4235222;27;5780;-63
2022/04/09 13:35:36;;;;;;;;;;;;;;;8.75;56.26;96693.03;4236564;27;5831;-63
2022/04/09 13:37:38;;;;;;;;;;;;;;;8.58;56.11;96691.59;4233698;27;5852;-63
2022/04/09 13:39:41;;;;;;;;;;;;;;;8.61;56.81;96707.06;4238489;27;5790;-63
2022/04/09 13:41:43;;;;;;;;;;;;;;;8.36;54.55;96718.84;4243201;27;5724;-63
2022/04/09 13:43:46;;;;;;;;;;;;;;;7.96;57.20;96723.50;4244543;27;5733;-64
2022/04/09 13:45:47;;;;;;;;;;;;;;;7.58;58.60;96735.78;4241922;27;7333;-62
2022/04/09 13:47:52;;;;;;;;;;;;;;;5.81;68.27;96739.72;4233219;28;5751;-62
2022/04/09 13:49:54;;;;;;;;;;;;;;;5.60;70.51;96727.09;4242059;27;5743;-63
2022/04/09 13:51:57;;;;;;;;;;;;;;;5.28;69.28;96719.19;4240130;27;5751;-63
2022/04/09 13:53:59;;;;;;;;;;;;;;;5.19;69.08;96719.19;4234798;27;5705;-62
2022/04/09 13:56:01;;;;;;;;;;;;;;;5.44;70.46;96721.84;4232062;27;5115;-63
2022/04/09 13:58:03;;;;;;;;;;;;;;;5.49;70.85;96715.13;4233566;28;5748;-62
2022/04/09 14:00:06;;;;;;;;;;;;;;;5.69;70.81;96715.63;4234309;27;5724;-62
2022/04/09 14:02:09;;;;;;;;;;;;;;;5.68;63.96;96702.69;4243531;27;5747;-62
2022/04/09 14:04:11;;;;;;;;;;;;;;;5.93;70.55;96708.75;4215072;28;5742;-63
2022/04/09 14:06:12;;;;;;;;;;;;;;;6.10;71.41;96707.72;4235024;27;5844;-63
2022/04/09 14:08:15;;;;;;;;;;;;;;;6.28;72.77;96710.97;4233380;28;5196;-64
2022/04/09 14:10:21;;;;;;;;;;;;;;;6.45;72.15;96710.91;4233623;28;5864;-64
2022/04/09 14:12:22;;;;;;;;;;;;;;;6.50;65.55;96708.63;4233706;28;5793;-65
2022/04/09 14:14:25;;;;;;;;;;;;;;;6.54;65.58;96715.97;4215230;28;5714;-65
2022/04/09 14:16:27;;;;;;;;;;;;;;;6.53;65.42;96713.53;4231556;28;6424;-64
2022/04/09 14:18:29;;;;;;;;;;;;;;;6.55;67.50;96711.53;4233215;28;5736;-64
2022/04/09 14:20:31;;;;;;;;;;;;;;;6.63;66.41;96712.34;4233552;28;6471;-64
2022/04/09 14:22:32;;;;;;;;;;;;;;;6.68;62.84;96717.91;4233500;28;5741;-63
2022/04/09 14:24:34;;;;;;;;;;;;;;;6.55;62.78;96717.63;4233368;28;6667;-64
2022/04/09 14:26:36;;;;;;;;;;;;;;;6.56;62.57;96716.63;4232951;28;6809;-63
2022/04/09 14:28:38;;;;;;;;;;;;;;;6.65;61.79;96710.34;4233135;28;6406;-64
2022/04/09 14:30:41;;;;;;;;;;;;;;;6.69;61.99;96716.91;4233415;28;5740;-63
2022/04/09 14:32:43;;;;;;;;;;;;;;;6.76;61.49;96713.59;4232943;28;5775;-63
2022/04/09 14:34:45;;;;;;;;;;;;;;;6.79;62.52;96715.88;4231648;28;5715;-63
2022/04/09 14:36:47;;;;;;;;;;;;;;;6.88;61.97;96723.56;4233190;28;5744;-63
2022/04/09 14:38:48;;;;;;;;;;;;;;;6.95;61.73;96723.69;4233030;28;5752;-63
2022/04/09 14:40:50;;;;;;;;;;;;;;;6.96;60.75;96715.63;4233226;28;5727;-65
2022/04/09 14:42:56;;;;;;;;;;;;;;;7.05;60.91;96723.50;4231791;28;5762;-65
2022/04/09 14:45:04;;;;;;;;;;;;;;;7.03;57.05;96725.47;4232964;27;5899;-65
2022/04/09 14:47:06;;;;;;;;;;;;;;;7.01;58.21;96731.69;4232542;28;5998;-62
2022/04/09 14:49:08;;;;;;;;;;;;;;;7.10;58.72;96726.41;4232433;28;7018;-65
2022/04/09 14:51:11;;;;;;;;;;;;;;;7.12;56.47;96719.16;4232811;28;5755;-64
2022/04/09 14:53:13;;;;;;;;;;;;;;;7.23;57.14;96721.41;4232812;28;6449;-65
2022/04/09 14:55:15;;;;;;;;;;;;;;;7.34;56.56;96723.63;4231392;28;5723;-66
2022/04/09 14:57:16;;;;;;;;;;;;;;;7.30;57.92;96720.53;4232665;27;5740;-65
2022/04/09 14:59:18;;;;;;;;;;;;;;;7.30;56.95;96725.78;4232496;28;5748;-62
2022/04/09 15:01:20;;;;;;;;;;;;;;;7.19;56.60;96730.63;4232537;28;5756;-63
2022/04/09 15:03:22;;;;;;;;;;;;;;;7.17;56.49;96733.44;4232468;28;5823;-63
2022/04/09 15:05:24;;;;;;;;;;;;;;;7.16;56.95;96736.25;4232714;28;5771;-63
2022/04/09 15:07:27;;;;;;;;;;;;;;;7.17;55.72;96736.06;4232599;28;5756;-63
2022/04/09 15:09:29;;;;;;;;;;;;;;;7.08;54.89;96728.38;4232477;28;5732;-63
2022/04/09 15:11:31;;;;;;;;;;;;;;;7.00;56.18;96721.34;4232428;28;5743;-63
2022/04/09 15:13:33;;;;;;;;;;;;;;;7.09;56.69;96732.66;4231239;28;5715;-63
2022/04/09 15:15:34;;;;;;;;;;;;;;;7.09;57.56;96733.47;4232249;27;5778;-63
2022/04/09 15:17:36;;;;;;;;;;;;;;;7.13;57.77;96726.06;4230832;28;6456;-63
2022/04/09 15:19:38;;;;;;;;;;;;;;;7.20;58.40;96727.81;4232324;28;5752;-63
2022/04/09 15:21:41;;;;;;;;;;;;;;;7.26;57.97;96736.84;4232435;28;6455;-63
2022/04/09 15:23:43;;;;;;;;;;;;;;;7.30;57.69;96733.69;4232181;28;5661;-63
2022/04/09 15:25:45;;;;;;;;;;;;;;;7.20;53.97;96732.25;4231834;28;5736;-64
2022/04/09 15:27:47;;;;;;;;;;;;;;;7.25;57.75;96740.47;4232321;28;5780;-63
2022/04/09 15:29:54;;;;;;;;;;;;;;;7.32;57.45;96730.06;4232209;28;5740;-64
2022/04/09 15:31:56;;;;;;;;;;;;;;;7.41;57.14;96734.28;4234742;27;5727;-64
2022/04/09 15:33:58;;;;;;;;;;;;;;;7.46;57.44;96738.00;4249225;27;5730;-63
2022/04/09 15:35:59;;;;;;;;;;;;;;;7.49;56.53;96734.22;4241411;27;5741;-63
2022/04/09 15:38:01;;;;;;;;;;;;;;;7.47;56.58;96749.34;4229430;27;5802;-63
2022/04/09 15:40:04;;;;;;;;;;;;;;;7.52;53.96;96749.66;4232200;28;5756;-63
2022/04/09 15:42:06;;;;;;;;;;;;;;;7.50;55.64;96752.47;4232019;28;5838;-63
2022/04/09 15:44:08;;;;;;;;;;;;;;;7.40;54.40;96743.97;4232070;28;5740;-63
2022/04/09 15:46:10;;;;;;;;;;;;;;;7.53;54.93;96741.59;4232048;28;5767;-63
2022/04/09 15:48:12;;;;;;;;;;;;;;;7.70;53.83;96751.97;4231802;28;5739;-63
2022/04/09 15:50:13;;;;;;;;;;;;;;;7.79;54.65;96753.56;4231844;28;5748;-63
2022/04/09 15:52:15;;;;;;;;;;;;;;;7.95;54.71;96753.44;4232080;28;6446;-63
2022/04/09 15:54:18;;;;;;;;;;;;;;;7.98;54.03;96754.91;4206593;28;5745;-63
2022/04/09 15:56:19;;;;;;;;;;;;;;;8.09;53.83;96760.56;4215169;28;5790;-64
2022/04/09 15:58:21;;;;;;;;;;;;;;;8.18;52.46;96762.13;4214868;28;5795;-63
2022/04/09 16:00:23;;;;;;;;;;;;;;;8.22;51.82;96761.75;4223085;28;5803;-64
2022/04/09 16:02:26;;;;;;;;;;;;;;;8.35;53.74;96760.16;4230318;28;5695;-63
2022/04/09 16:04:28;;;;;;;;;;;;;;;8.39;52.55;96765.91;4231743;27;5764;-64
2022/04/09 16:06:29;;;;;;;;;;;;;;;8.30;51.88;96762.50;4230092;28;5719;-63
2022/04/09 16:08:31;;;;;;;;;;;;;;;8.38;55.18;96764.25;4231812;28;5748;-63
2022/04/09 16:10:34;;;;;;;;;;;;;;;8.15;57.78;96765.13;4231410;28;5759;-64
2022/04/09 16:12:36;;;;;;;;;;;;;;;8.35;58.42;96764.63;4230322;28;6369;-64
2022/04/09 16:14:57;;;;;;;;;;;;;;;8.37;58.92;96783.69;4231719;28;5729;-63
2022/04/09 16:16:58;;;;;;;;;;;;;;;8.27;57.83;96783.09;4231509;28;5732;-64
2022/04/09 16:19:00;;;;;;;;;;;;;;;8.20;57.40;96793.53;4229184;28;5744;-64
2022/04/09 16:21:02;;;;;;;;;;;;;;;8.08;52.58;96784.44;4231684;28;5744;-64
2022/04/09 16:23:04;;;;;;;;;;;;;;;7.80;51.80;96789.41;4231430;28;5752;-64
2022/04/09 16:25:07;;;;;;;;;;;;;;;7.76;53.54;96796.03;4229898;28;5780;-64
2022/04/09 16:27:08;;;;;;;;;;;;;;;7.78;54.78;96794.03;4231468;28;5754;-64